sensor_id;sensor_type;location;lat;lon;timestamp;P1;durP1;ratioP1;P2;durP2;ratioP2
10341;SDS011;5216;54.602;18.356;2024-02-21T00:01:21;17.80;;;9.33;;
10341;SDS011;5216;54.602;18.356;2024-02-21T00:03:49;20.27;;;13.57;;
10341;SDS011;5216;54.602;18.356;2024-02-21T00:06:15;19.90;;;9.40;;
10341;SDS011;5216;54.602;18.356;2024-02-21T00:08:42;13.17;;;5.80;;
10341;SDS011;5216;54.602;18.356;2024-02-21T00:11:09;15.43;;;5.47;;
10341;SDS011;5216;54.602;18.356;2024-02-21T00:13:36;16.23;;;6.87;;
10341;SDS011;5216;54.602;18.356;2024-02-21T00:16:03;13.33;;;5.33;;
10341;SDS011;5216;54.602;18.356;2024-02-21T00:18:30;12.03;;;4.50;;
10341;SDS011;5216;54.602;18.356;2024-02-21T00:20:57;16.47;;;6.00;;
10341;SDS011;5216;54.602;18.356;2024-02-21T00:23:23;15.47;;;6.03;;
10341;SDS011;5216;54.602;18.356;2024-02-21T00:25:50;12.83;;;5.90;;
10341;SDS011;5216;54.602;18.356;2024-02-21T00:28:17;16.03;;;6.53;;
10341;SDS011;5216;54.602;18.356;2024-02-21T00:30:44;12.77;;;5.40;;
10341;SDS011;5216;54.602;18.356;2024-02-21T00:33:10;17.83;;;5.40;;
10341;SDS011;5216;54.602;18.356;2024-02-21T00:35:37;15.33;;;5.13;;
10341;SDS011;5216;54.602;18.356;2024-02-21T00:38:04;16.30;;;5.80;;
10341;SDS011;5216;54.602;18.356;2024-02-21T00:40:31;17.10;;;5.13;;
10341;SDS011;5216;54.602;18.356;2024-02-21T00:42:58;17.47;;;5.47;;
10341;SDS011;5216;54.602;18.356;2024-02-21T00:45:25;15.00;;;4.37;;
10341;SDS011;5216;54.602;18.356;2024-02-21T00:47:51;18.33;;;5.93;;
10341;SDS011;5216;54.602;18.356;2024-02-21T00:50:18;18.23;;;5.77;;
10341;SDS011;5216;54.602;18.356;2024-02-21T00:52:45;17.57;;;4.60;;
10341;SDS011;5216;54.602;18.356;2024-02-21T00:55:12;16.97;;;5.43;;
10341;SDS011;5216;54.602;18.356;2024-02-21T00:57:39;18.13;;;5.77;;
10341;SDS011;5216;54.602;18.356;2024-02-21T01:00:06;20.73;;;5.53;;
10341;SDS011;5216;54.602;18.356;2024-02-21T01:02:34;16.47;;;5.00;;
10341;SDS011;5216;54.602;18.356;2024-02-21T01:05:01;17.20;;;6.13;;
10341;SDS011;5216;54.602;18.356;2024-02-21T01:07:29;20.17;;;6.33;;
10341;SDS011;5216;54.602;18.356;2024-02-21T01:09:55;22.87;;;5.80;;
10341;SDS011;5216;54.602;18.356;2024-02-21T01:12:22;17.70;;;6.07;;
10341;SDS011;5216;54.602;18.356;2024-02-21T01:14:49;17.43;;;5.90;;
10341;SDS011;5216;54.602;18.356;2024-02-21T01:17:16;14.27;;;5.23;;
10341;SDS011;5216;54.602;18.356;2024-02-21T01:19:43;19.43;;;6.70;;
10341;SDS011;5216;54.602;18.356;2024-02-21T01:22:09;21.57;;;6.03;;
10341;SDS011;5216;54.602;18.356;2024-02-21T01:24:36;21.17;;;6.07;;
10341;SDS011;5216;54.602;18.356;2024-02-21T01:27:03;21.43;;;6.63;;
10341;SDS011;5216;54.602;18.356;2024-02-21T01:29:30;19.50;;;6.47;;
10341;SDS011;5216;54.602;18.356;2024-02-21T01:31:56;17.27;;;6.77;;
10341;SDS011;5216;54.602;18.356;2024-02-21T01:34:23;23.43;;;6.40;;
10341;SDS011;5216;54.602;18.356;2024-02-21T01:36:51;25.43;;;6.80;;
10341;SDS011;5216;54.602;18.356;2024-02-21T01:39:17;19.60;;;6.87;;
10341;SDS011;5216;54.602;18.356;2024-02-21T01:41:44;19.63;;;7.47;;
10341;SDS011;5216;54.602;18.356;2024-02-21T01:44:11;22.23;;;6.73;;
10341;SDS011;5216;54.602;18.356;2024-02-21T01:46:37;21.30;;;6.77;;
10341;SDS011;5216;54.602;18.356;2024-02-21T01:49:04;20.00;;;6.07;;
10341;SDS011;5216;54.602;18.356;2024-02-21T01:51:32;21.90;;;6.30;;
10341;SDS011;5216;54.602;18.356;2024-02-21T01:53:59;20.43;;;6.27;;
10341;SDS011;5216;54.602;18.356;2024-02-21T01:56:26;25.10;;;7.23;;
10341;SDS011;5216;54.602;18.356;2024-02-21T01:58:54;25.57;;;7.47;;
10341;SDS011;5216;54.602;18.356;2024-02-21T02:01:22;24.57;;;6.87;;
10341;SDS011;5216;54.602;18.356;2024-02-21T02:03:49;23.07;;;6.37;;
10341;SDS011;5216;54.602;18.356;2024-02-21T02:06:16;21.13;;;7.10;;
10341;SDS011;5216;54.602;18.356;2024-02-21T02:08:43;22.00;;;6.40;;
10341;SDS011;5216;54.602;18.356;2024-02-21T02:11:10;24.43;;;6.77;;
10341;SDS011;5216;54.602;18.356;2024-02-21T02:13:39;21.90;;;5.90;;
10341;SDS011;5216;54.602;18.356;2024-02-21T02:16:06;17.73;;;6.33;;
10341;SDS011;5216;54.602;18.356;2024-02-21T02:18:33;22.73;;;5.63;;
10341;SDS011;5216;54.602;18.356;2024-02-21T02:21:00;20.20;;;5.90;;
10341;SDS011;5216;54.602;18.356;2024-02-21T02:23:30;16.30;;;5.43;;
10341;SDS011;5216;54.602;18.356;2024-02-21T02:25:58;17.67;;;5.53;;
10341;SDS011;5216;54.602;18.356;2024-02-21T02:28:25;21.63;;;6.27;;
10341;SDS011;5216;54.602;18.356;2024-02-21T02:30:52;20.87;;;5.17;;
10341;SDS011;5216;54.602;18.356;2024-02-21T02:33:19;16.83;;;5.10;;
10341;SDS011;5216;54.602;18.356;2024-02-21T02:35:46;15.00;;;5.47;;
10341;SDS011;5216;54.602;18.356;2024-02-21T02:38:13;16.13;;;5.40;;
10341;SDS011;5216;54.602;18.356;2024-02-21T02:40:41;19.30;;;6.03;;
10341;SDS011;5216;54.602;18.356;2024-02-21T02:43:08;18.17;;;5.43;;
10341;SDS011;5216;54.602;18.356;2024-02-21T02:45:36;16.93;;;5.43;;
10341;SDS011;5216;54.602;18.356;2024-02-21T02:48:03;18.40;;;5.43;;
10341;SDS011;5216;54.602;18.356;2024-02-21T02:50:30;16.67;;;5.40;;
10341;SDS011;5216;54.602;18.356;2024-02-21T02:52:57;17.90;;;5.00;;
10341;SDS011;5216;54.602;18.356;2024-02-21T02:55:24;16.37;;;4.83;;
10341;SDS011;5216;54.602;18.356;2024-02-21T02:57:53;13.37;;;4.73;;
10341;SDS011;5216;54.602;18.356;2024-02-21T03:00:20;13.87;;;4.43;;
10341;SDS011;5216;54.602;18.356;2024-02-21T03:02:48;14.20;;;4.17;;
10341;SDS011;5216;54.602;18.356;2024-02-21T03:05:16;13.20;;;4.13;;
10341;SDS011;5216;54.602;18.356;2024-02-21T03:07:45;11.00;;;4.10;;
10341;SDS011;5216;54.602;18.356;2024-02-21T03:10:12;11.57;;;3.80;;
10341;SDS011;5216;54.602;18.356;2024-02-21T03:12:40;16.33;;;4.60;;
10341;SDS011;5216;54.602;18.356;2024-02-21T03:15:07;10.83;;;3.80;;
10341;SDS011;5216;54.602;18.356;2024-02-21T03:17:34;9.60;;;3.90;;
10341;SDS011;5216;54.602;18.356;2024-02-21T03:20:03;15.33;;;4.67;;
10341;SDS011;5216;54.602;18.356;2024-02-21T03:22:39;10.77;;;4.10;;
10341;SDS011;5216;54.602;18.356;2024-02-21T03:25:07;10.07;;;3.57;;
10341;SDS011;5216;54.602;18.356;2024-02-21T03:27:37;15.87;;;4.20;;
10341;SDS011;5216;54.602;18.356;2024-02-21T03:30:04;9.70;;;3.40;;
10341;SDS011;5216;54.602;18.356;2024-02-21T03:32:31;10.27;;;4.10;;
10341;SDS011;5216;54.602;18.356;2024-02-21T03:34:58;8.43;;;3.70;;
10341;SDS011;5216;54.602;18.356;2024-02-21T03:37:25;10.00;;;3.47;;
10341;SDS011;5216;54.602;18.356;2024-02-21T03:39:52;10.90;;;3.53;;
10341;SDS011;5216;54.602;18.356;2024-02-21T03:42:19;7.63;;;3.20;;
10341;SDS011;5216;54.602;18.356;2024-02-21T03:44:45;9.37;;;3.23;;
10341;SDS011;5216;54.602;18.356;2024-02-21T03:47:12;9.47;;;3.20;;
10341;SDS011;5216;54.602;18.356;2024-02-21T03:49:39;9.97;;;3.67;;
10341;SDS011;5216;54.602;18.356;2024-02-21T03:52:06;8.33;;;3.13;;
10341;SDS011;5216;54.602;18.356;2024-02-21T03:54:33;9.93;;;3.60;;
10341;SDS011;5216;54.602;18.356;2024-02-21T03:57:00;8.07;;;3.40;;
10341;SDS011;5216;54.602;18.356;2024-02-21T03:59:27;9.23;;;3.60;;
10341;SDS011;5216;54.602;18.356;2024-02-21T04:01:53;9.07;;;3.63;;
10341;SDS011;5216;54.602;18.356;2024-02-21T04:04:20;9.97;;;3.77;;
10341;SDS011;5216;54.602;18.356;2024-02-21T04:06:48;11.30;;;3.77;;
10341;SDS011;5216;54.602;18.356;2024-02-21T04:09:15;8.77;;;4.23;;
10341;SDS011;5216;54.602;18.356;2024-02-21T04:11:42;9.77;;;3.80;;
10341;SDS011;5216;54.602;18.356;2024-02-21T04:14:09;8.80;;;4.17;;
10341;SDS011;5216;54.602;18.356;2024-02-21T04:16:38;7.77;;;3.80;;
10341;SDS011;5216;54.602;18.356;2024-02-21T04:19:06;10.73;;;3.37;;
10341;SDS011;5216;54.602;18.356;2024-02-21T04:21:32;9.30;;;3.67;;
10341;SDS011;5216;54.602;18.356;2024-02-21T04:23:59;9.27;;;3.43;;
10341;SDS011;5216;54.602;18.356;2024-02-21T04:26:27;9.77;;;3.90;;
10341;SDS011;5216;54.602;18.356;2024-02-21T04:28:54;10.33;;;3.83;;
10341;SDS011;5216;54.602;18.356;2024-02-21T04:31:21;10.50;;;4.07;;
10341;SDS011;5216;54.602;18.356;2024-02-21T04:33:48;9.70;;;4.23;;
10341;SDS011;5216;54.602;18.356;2024-02-21T04:36:15;10.97;;;3.20;;
10341;SDS011;5216;54.602;18.356;2024-02-21T04:38:41;9.03;;;3.93;;
10341;SDS011;5216;54.602;18.356;2024-02-21T04:41:08;10.67;;;3.63;;
10341;SDS011;5216;54.602;18.356;2024-02-21T04:43:35;9.50;;;3.90;;
10341;SDS011;5216;54.602;18.356;2024-02-21T04:46:02;8.53;;;3.57;;
10341;SDS011;5216;54.602;18.356;2024-02-21T04:48:29;9.07;;;4.40;;
10341;SDS011;5216;54.602;18.356;2024-02-21T04:50:55;8.43;;;3.90;;
10341;SDS011;5216;54.602;18.356;2024-02-21T04:53:22;9.43;;;4.20;;
10341;SDS011;5216;54.602;18.356;2024-02-21T04:55:49;8.53;;;3.57;;
10341;SDS011;5216;54.602;18.356;2024-02-21T04:58:16;9.10;;;3.60;;
10341;SDS011;5216;54.602;18.356;2024-02-21T05:00:42;10.80;;;4.17;;
10341;SDS011;5216;54.602;18.356;2024-02-21T05:03:09;11.10;;;3.90;;
10341;SDS011;5216;54.602;18.356;2024-02-21T05:05:37;11.17;;;3.83;;
10341;SDS011;5216;54.602;18.356;2024-02-21T05:08:04;10.50;;;3.87;;
10341;SDS011;5216;54.602;18.356;2024-02-21T05:10:31;9.93;;;4.03;;
10341;SDS011;5216;54.602;18.356;2024-02-21T05:12:58;10.20;;;3.83;;
10341;SDS011;5216;54.602;18.356;2024-02-21T05:15:25;8.63;;;3.47;;
10341;SDS011;5216;54.602;18.356;2024-02-21T05:17:52;9.40;;;4.17;;
10341;SDS011;5216;54.602;18.356;2024-02-21T05:20:19;12.07;;;3.73;;
10341;SDS011;5216;54.602;18.356;2024-02-21T05:22:46;9.20;;;3.97;;
10341;SDS011;5216;54.602;18.356;2024-02-21T05:25:13;10.60;;;3.57;;
10341;SDS011;5216;54.602;18.356;2024-02-21T05:27:40;8.33;;;3.27;;
10341;SDS011;5216;54.602;18.356;2024-02-21T05:30:07;7.87;;;3.60;;
10341;SDS011;5216;54.602;18.356;2024-02-21T05:32:34;8.47;;;3.33;;
10341;SDS011;5216;54.602;18.356;2024-02-21T05:35:01;9.40;;;3.67;;
10341;SDS011;5216;54.602;18.356;2024-02-21T05:37:28;11.07;;;4.00;;
10341;SDS011;5216;54.602;18.356;2024-02-21T05:39:55;10.83;;;4.07;;
10341;SDS011;5216;54.602;18.356;2024-02-21T05:42:21;10.57;;;4.43;;
10341;SDS011;5216;54.602;18.356;2024-02-21T05:44:48;10.10;;;4.80;;
10341;SDS011;5216;54.602;18.356;2024-02-21T05:47:15;13.43;;;7.27;;
10341;SDS011;5216;54.602;18.356;2024-02-21T05:49:42;11.60;;;5.20;;
10341;SDS011;5216;54.602;18.356;2024-02-21T05:52:10;11.93;;;5.53;;
10341;SDS011;5216;54.602;18.356;2024-02-21T05:54:39;8.03;;;4.50;;
10341;SDS011;5216;54.602;18.356;2024-02-21T05:57:07;10.37;;;4.80;;
10341;SDS011;5216;54.602;18.356;2024-02-21T05:59:34;13.47;;;5.17;;
10341;SDS011;5216;54.602;18.356;2024-02-21T06:02:03;10.17;;;4.70;;
10341;SDS011;5216;54.602;18.356;2024-02-21T06:04:30;12.30;;;5.50;;
10341;SDS011;5216;54.602;18.356;2024-02-21T06:06:57;10.20;;;4.90;;
10341;SDS011;5216;54.602;18.356;2024-02-21T06:09:24;12.00;;;5.23;;
10341;SDS011;5216;54.602;18.356;2024-02-21T06:11:51;11.17;;;4.87;;
10341;SDS011;5216;54.602;18.356;2024-02-21T06:14:19;11.40;;;5.57;;
10341;SDS011;5216;54.602;18.356;2024-02-21T06:16:46;13.23;;;7.57;;
10341;SDS011;5216;54.602;18.356;2024-02-21T06:19:13;15.57;;;8.57;;
10341;SDS011;5216;54.602;18.356;2024-02-21T06:21:41;8.30;;;5.97;;
10341;SDS011;5216;54.602;18.356;2024-02-21T06:24:08;10.70;;;5.60;;
10341;SDS011;5216;54.602;18.356;2024-02-21T06:26:35;12.30;;;5.87;;
10341;SDS011;5216;54.602;18.356;2024-02-21T06:29:01;12.97;;;6.00;;
10341;SDS011;5216;54.602;18.356;2024-02-21T06:31:29;11.60;;;5.93;;
10341;SDS011;5216;54.602;18.356;2024-02-21T06:33:56;12.57;;;5.77;;
10341;SDS011;5216;54.602;18.356;2024-02-21T06:36:23;10.93;;;5.50;;
10341;SDS011;5216;54.602;18.356;2024-02-21T06:38:49;69.30;;;61.77;;
10341;SDS011;5216;54.602;18.356;2024-02-21T06:41:17;11.00;;;6.80;;
10341;SDS011;5216;54.602;18.356;2024-02-21T06:43:46;12.47;;;6.50;;
10341;SDS011;5216;54.602;18.356;2024-02-21T06:46:26;13.37;;;6.87;;
10341;SDS011;5216;54.602;18.356;2024-02-21T06:48:56;13.97;;;5.93;;
10341;SDS011;5216;54.602;18.356;2024-02-21T06:51:24;12.70;;;5.97;;
10341;SDS011;5216;54.602;18.356;2024-02-21T06:53:54;12.87;;;6.67;;
10341;SDS011;5216;54.602;18.356;2024-02-21T06:56:23;11.83;;;6.50;;
10341;SDS011;5216;54.602;18.356;2024-02-21T06:58:55;13.57;;;6.90;;
10341;SDS011;5216;54.602;18.356;2024-02-21T07:01:23;13.33;;;6.53;;
10341;SDS011;5216;54.602;18.356;2024-02-21T07:03:50;16.37;;;6.97;;
10341;SDS011;5216;54.602;18.356;2024-02-21T07:06:17;13.97;;;6.37;;
10341;SDS011;5216;54.602;18.356;2024-02-21T07:08:44;15.00;;;7.10;;
10341;SDS011;5216;54.602;18.356;2024-02-21T07:11:13;15.43;;;7.27;;
10341;SDS011;5216;54.602;18.356;2024-02-21T07:13:40;14.67;;;7.30;;
10341;SDS011;5216;54.602;18.356;2024-02-21T07:16:07;19.33;;;8.00;;
10341;SDS011;5216;54.602;18.356;2024-02-21T07:18:34;14.97;;;7.07;;
10341;SDS011;5216;54.602;18.356;2024-02-21T07:21:01;15.00;;;7.20;;
10341;SDS011;5216;54.602;18.356;2024-02-21T07:23:28;15.03;;;7.50;;
10341;SDS011;5216;54.602;18.356;2024-02-21T07:25:55;16.07;;;7.53;;
10341;SDS011;5216;54.602;18.356;2024-02-21T07:28:21;19.07;;;7.80;;
10341;SDS011;5216;54.602;18.356;2024-02-21T07:30:48;17.30;;;8.20;;
10341;SDS011;5216;54.602;18.356;2024-02-21T07:33:15;19.53;;;8.00;;
10341;SDS011;5216;54.602;18.356;2024-02-21T07:35:42;16.27;;;8.00;;
10341;SDS011;5216;54.602;18.356;2024-02-21T07:38:11;13.03;;;7.43;;
10341;SDS011;5216;54.602;18.356;2024-02-21T07:40:39;15.33;;;7.10;;
10341;SDS011;5216;54.602;18.356;2024-02-21T07:43:06;14.00;;;7.63;;
10341;SDS011;5216;54.602;18.356;2024-02-21T07:45:33;19.17;;;12.63;;
10341;SDS011;5216;54.602;18.356;2024-02-21T07:48:00;14.87;;;9.90;;
10341;SDS011;5216;54.602;18.356;2024-02-21T07:50:26;14.33;;;7.70;;
10341;SDS011;5216;54.602;18.356;2024-02-21T07:52:54;14.27;;;7.37;;
10341;SDS011;5216;54.602;18.356;2024-02-21T07:55:20;13.47;;;7.50;;
10341;SDS011;5216;54.602;18.356;2024-02-21T07:57:47;13.27;;;7.50;;
10341;SDS011;5216;54.602;18.356;2024-02-21T08:00:14;13.33;;;6.97;;
10341;SDS011;5216;54.602;18.356;2024-02-21T08:02:47;13.53;;;7.07;;
10341;SDS011;5216;54.602;18.356;2024-02-21T08:05:15;13.13;;;6.43;;
10341;SDS011;5216;54.602;18.356;2024-02-21T08:07:42;14.60;;;7.70;;
10341;SDS011;5216;54.602;18.356;2024-02-21T08:10:09;13.63;;;7.10;;
10341;SDS011;5216;54.602;18.356;2024-02-21T08:12:36;11.97;;;7.67;;
10341;SDS011;5216;54.602;18.356;2024-02-21T08:15:04;12.87;;;7.70;;
10341;SDS011;5216;54.602;18.356;2024-02-21T08:17:31;12.87;;;7.30;;
10341;SDS011;5216;54.602;18.356;2024-02-21T08:19:58;10.93;;;6.73;;
10341;SDS011;5216;54.602;18.356;2024-02-21T08:22:25;10.80;;;6.90;;
10341;SDS011;5216;54.602;18.356;2024-02-21T08:24:53;14.60;;;10.83;;
10341;SDS011;5216;54.602;18.356;2024-02-21T08:27:20;19.03;;;14.20;;
10341;SDS011;5216;54.602;18.356;2024-02-21T08:29:47;19.67;;;14.37;;
10341;SDS011;5216;54.602;18.356;2024-02-21T08:32:13;11.23;;;6.70;;
10341;SDS011;5216;54.602;18.356;2024-02-21T08:34:40;13.00;;;7.20;;
10341;SDS011;5216;54.602;18.356;2024-02-21T08:37:07;9.90;;;6.30;;
10341;SDS011;5216;54.602;18.356;2024-02-21T08:39:34;9.43;;;6.10;;
10341;SDS011;5216;54.602;18.356;2024-02-21T08:42:01;12.63;;;6.80;;
10341;SDS011;5216;54.602;18.356;2024-02-21T08:44:28;13.17;;;6.40;;
10341;SDS011;5216;54.602;18.356;2024-02-21T08:46:55;12.87;;;7.20;;
10341;SDS011;5216;54.602;18.356;2024-02-21T08:49:23;9.07;;;6.47;;
10341;SDS011;5216;54.602;18.356;2024-02-21T08:51:52;10.93;;;8.00;;
10341;SDS011;5216;54.602;18.356;2024-02-21T08:54:19;11.70;;;6.83;;
10341;SDS011;5216;54.602;18.356;2024-02-21T08:56:45;11.20;;;7.27;;
10341;SDS011;5216;54.602;18.356;2024-02-21T08:59:12;10.47;;;6.43;;
10341;SDS011;5216;54.602;18.356;2024-02-21T09:01:41;9.03;;;5.97;;
10341;SDS011;5216;54.602;18.356;2024-02-21T09:04:08;10.87;;;6.60;;
10341;SDS011;5216;54.602;18.356;2024-02-21T09:06:35;8.93;;;5.77;;
10341;SDS011;5216;54.602;18.356;2024-02-21T09:09:05;9.93;;;6.63;;
10341;SDS011;5216;54.602;18.356;2024-02-21T09:11:34;8.87;;;6.50;;
10341;SDS011;5216;54.602;18.356;2024-02-21T09:14:01;12.53;;;8.60;;
10341;SDS011;5216;54.602;18.356;2024-02-21T09:16:31;11.23;;;7.07;;
10341;SDS011;5216;54.602;18.356;2024-02-21T09:18:59;9.07;;;7.30;;
10341;SDS011;5216;54.602;18.356;2024-02-21T09:21:26;13.80;;;8.00;;
10341;SDS011;5216;54.602;18.356;2024-02-21T09:23:54;9.20;;;6.50;;
10341;SDS011;5216;54.602;18.356;2024-02-21T09:26:25;12.97;;;7.93;;
10341;SDS011;5216;54.602;18.356;2024-02-21T09:28:57;10.97;;;7.50;;
10341;SDS011;5216;54.602;18.356;2024-02-21T09:31:24;10.83;;;7.33;;
10341;SDS011;5216;54.602;18.356;2024-02-21T09:33:51;9.13;;;6.33;;
10341;SDS011;5216;54.602;18.356;2024-02-21T09:36:18;7.23;;;5.63;;
10341;SDS011;5216;54.602;18.356;2024-02-21T09:38:45;7.83;;;6.03;;
10341;SDS011;5216;54.602;18.356;2024-02-21T09:41:15;9.90;;;6.70;;
10341;SDS011;5216;54.602;18.356;2024-02-21T09:43:52;7.60;;;5.97;;
10341;SDS011;5216;54.602;18.356;2024-02-21T09:52:21;7.93;;;6.60;;
10341;SDS011;5216;54.602;18.356;2024-02-21T09:54:49;11.50;;;10.27;;
10341;SDS011;5216;54.602;18.356;2024-02-21T09:57:18;6.63;;;4.93;;
10341;SDS011;5216;54.602;18.356;2024-02-21T09:59:48;7.27;;;6.17;;
10341;SDS011;5216;54.602;18.356;2024-02-21T10:02:16;7.73;;;5.77;;
10341;SDS011;5216;54.602;18.356;2024-02-21T10:04:44;7.17;;;5.07;;
10341;SDS011;5216;54.602;18.356;2024-02-21T10:07:11;6.70;;;5.00;;
10341;SDS011;5216;54.602;18.356;2024-02-21T10:09:39;6.50;;;5.33;;
10341;SDS011;5216;54.602;18.356;2024-02-21T10:12:07;5.37;;;4.83;;
10341;SDS011;5216;54.602;18.356;2024-02-21T10:14:38;5.67;;;4.60;;
10341;SDS011;5216;54.602;18.356;2024-02-21T10:17:05;6.13;;;4.73;;
10341;SDS011;5216;54.602;18.356;2024-02-21T10:19:37;5.57;;;4.60;;
10341;SDS011;5216;54.602;18.356;2024-02-21T10:22:07;4.93;;;3.70;;
10341;SDS011;5216;54.602;18.356;2024-02-21T10:24:36;5.47;;;4.87;;
10341;SDS011;5216;54.602;18.356;2024-02-21T10:27:09;5.37;;;4.30;;
10341;SDS011;5216;54.602;18.356;2024-02-21T10:29:40;5.17;;;4.13;;
10341;SDS011;5216;54.602;18.356;2024-02-21T10:32:09;4.83;;;4.43;;
10341;SDS011;5216;54.602;18.356;2024-02-21T10:34:39;4.10;;;3.70;;
10341;SDS011;5216;54.602;18.356;2024-02-21T10:37:07;5.17;;;3.63;;
10341;SDS011;5216;54.602;18.356;2024-02-21T10:39:39;4.10;;;3.70;;
10341;SDS011;5216;54.602;18.356;2024-02-21T10:42:07;3.90;;;3.17;;
10341;SDS011;5216;54.602;18.356;2024-02-21T10:44:37;4.07;;;3.60;;
10341;SDS011;5216;54.602;18.356;2024-02-21T10:47:08;3.80;;;3.37;;
10341;SDS011;5216;54.602;18.356;2024-02-21T10:49:39;3.60;;;3.30;;
10341;SDS011;5216;54.602;18.356;2024-02-21T10:52:17;4.43;;;3.77;;
10341;SDS011;5216;54.602;18.356;2024-02-21T10:54:55;4.37;;;3.77;;
10341;SDS011;5216;54.602;18.356;2024-02-21T10:57:27;3.63;;;3.27;;
10341;SDS011;5216;54.602;18.356;2024-02-21T10:59:55;5.17;;;3.80;;
10341;SDS011;5216;54.602;18.356;2024-02-21T11:02:25;4.40;;;4.00;;
10341;SDS011;5216;54.602;18.356;2024-02-21T11:04:55;5.80;;;4.20;;
10341;SDS011;5216;54.602;18.356;2024-02-21T11:07:23;4.90;;;4.23;;
10341;SDS011;5216;54.602;18.356;2024-02-21T11:09:51;3.80;;;3.27;;
10341;SDS011;5216;54.602;18.356;2024-02-21T11:12:22;5.93;;;3.50;;
10341;SDS011;5216;54.602;18.356;2024-02-21T11:14:50;4.50;;;3.70;;
10341;SDS011;5216;54.602;18.356;2024-02-21T11:17:17;5.07;;;4.47;;
10341;SDS011;5216;54.602;18.356;2024-02-21T11:19:44;4.97;;;4.40;;
10341;SDS011;5216;54.602;18.356;2024-02-21T11:22:16;7.73;;;6.63;;
10341;SDS011;5216;54.602;18.356;2024-02-21T11:24:44;6.13;;;4.87;;
10341;SDS011;5216;54.602;18.356;2024-02-21T11:27:15;5.17;;;3.70;;
10341;SDS011;5216;54.602;18.356;2024-02-21T11:29:46;5.90;;;4.90;;
10341;SDS011;5216;54.602;18.356;2024-02-21T11:32:14;5.60;;;4.57;;
10341;SDS011;5216;54.602;18.356;2024-02-21T11:34:52;7.53;;;6.37;;
10341;SDS011;5216;54.602;18.356;2024-02-21T11:37:31;8.80;;;7.33;;
10341;SDS011;5216;54.602;18.356;2024-02-21T11:40:05;5.70;;;4.73;;
10341;SDS011;5216;54.602;18.356;2024-02-21T11:42:38;4.80;;;3.70;;
10341;SDS011;5216;54.602;18.356;2024-02-21T11:45:05;7.23;;;5.87;;
10341;SDS011;5216;54.602;18.356;2024-02-21T11:47:33;4.57;;;4.10;;
10341;SDS011;5216;54.602;18.356;2024-02-21T11:50:00;16.20;;;11.83;;
10341;SDS011;5216;54.602;18.356;2024-02-21T11:52:27;7.53;;;6.23;;
10341;SDS011;5216;54.602;18.356;2024-02-21T11:54:55;5.50;;;4.93;;
10341;SDS011;5216;54.602;18.356;2024-02-21T11:57:24;11.30;;;7.83;;
10341;SDS011;5216;54.602;18.356;2024-02-21T11:59:51;5.20;;;4.10;;
10341;SDS011;5216;54.602;18.356;2024-02-21T12:02:26;4.83;;;3.97;;
10341;SDS011;5216;54.602;18.356;2024-02-21T12:04:53;3.67;;;3.23;;
10341;SDS011;5216;54.602;18.356;2024-02-21T12:07:21;3.50;;;3.20;;
10341;SDS011;5216;54.602;18.356;2024-02-21T12:09:50;4.97;;;4.43;;
10341;SDS011;5216;54.602;18.356;2024-02-21T12:12:19;9.00;;;8.10;;
10341;SDS011;5216;54.602;18.356;2024-02-21T12:14:47;19.37;;;17.30;;
10341;SDS011;5216;54.602;18.356;2024-02-21T12:17:22;27.37;;;23.67;;
10341;SDS011;5216;54.602;18.356;2024-02-21T12:19:50;6.03;;;5.40;;
10341;SDS011;5216;54.602;18.356;2024-02-21T12:22:20;4.87;;;4.30;;
10341;SDS011;5216;54.602;18.356;2024-02-21T12:24:47;3.80;;;2.67;;
10341;SDS011;5216;54.602;18.356;2024-02-21T12:27:15;2.83;;;1.97;;
10341;SDS011;5216;54.602;18.356;2024-02-21T12:29:42;2.83;;;2.13;;
10341;SDS011;5216;54.602;18.356;2024-02-21T12:32:08;2.97;;;1.90;;
10341;SDS011;5216;54.602;18.356;2024-02-21T12:34:35;3.20;;;2.77;;
10341;SDS011;5216;54.602;18.356;2024-02-21T12:37:18;3.37;;;2.43;;
10341;SDS011;5216;54.602;18.356;2024-02-21T12:39:47;2.43;;;1.80;;
10341;SDS011;5216;54.602;18.356;2024-02-21T12:42:14;4.23;;;2.30;;
10341;SDS011;5216;54.602;18.356;2024-02-21T12:44:41;3.93;;;1.80;;
10341;SDS011;5216;54.602;18.356;2024-02-21T12:47:09;5.73;;;2.43;;
10341;SDS011;5216;54.602;18.356;2024-02-21T12:49:36;9.90;;;7.00;;
10341;SDS011;5216;54.602;18.356;2024-02-21T12:52:04;4.53;;;3.70;;
10341;SDS011;5216;54.602;18.356;2024-02-21T12:54:31;5.07;;;2.63;;
10341;SDS011;5216;54.602;18.356;2024-02-21T12:56:58;3.17;;;2.30;;
10341;SDS011;5216;54.602;18.356;2024-02-21T12:59:29;2.77;;;2.10;;
10341;SDS011;5216;54.602;18.356;2024-02-21T13:01:58;3.53;;;2.90;;
10341;SDS011;5216;54.602;18.356;2024-02-21T13:04:25;4.43;;;2.70;;
10341;SDS011;5216;54.602;18.356;2024-02-21T13:06:52;4.80;;;2.73;;
10341;SDS011;5216;54.602;18.356;2024-02-21T13:09:19;4.17;;;2.40;;
10341;SDS011;5216;54.602;18.356;2024-02-21T13:11:46;5.63;;;4.07;;
10341;SDS011;5216;54.602;18.356;2024-02-21T13:14:13;11.87;;;10.47;;
10341;SDS011;5216;54.602;18.356;2024-02-21T13:16:40;11.00;;;8.70;;
10341;SDS011;5216;54.602;18.356;2024-02-21T13:19:07;4.50;;;2.97;;
10341;SDS011;5216;54.602;18.356;2024-02-21T13:21:35;6.00;;;4.77;;
10341;SDS011;5216;54.602;18.356;2024-02-21T13:24:02;4.17;;;2.50;;
10341;SDS011;5216;54.602;18.356;2024-02-21T13:26:29;5.53;;;2.40;;
10341;SDS011;5216;54.602;18.356;2024-02-21T13:28:56;9.13;;;6.00;;
10341;SDS011;5216;54.602;18.356;2024-02-21T13:31:23;5.13;;;2.27;;
10341;SDS011;5216;54.602;18.356;2024-02-21T13:33:51;4.80;;;2.00;;
10341;SDS011;5216;54.602;18.356;2024-02-21T13:36:18;3.97;;;2.10;;
10341;SDS011;5216;54.602;18.356;2024-02-21T13:38:45;4.33;;;2.20;;
10341;SDS011;5216;54.602;18.356;2024-02-21T13:41:13;7.73;;;7.03;;
10341;SDS011;5216;54.602;18.356;2024-02-21T13:43:40;12.13;;;10.93;;
10341;SDS011;5216;54.602;18.356;2024-02-21T13:46:07;7.80;;;7.00;;
10341;SDS011;5216;54.602;18.356;2024-02-21T13:48:36;5.03;;;3.70;;
10341;SDS011;5216;54.602;18.356;2024-02-21T13:51:03;5.00;;;3.37;;
10341;SDS011;5216;54.602;18.356;2024-02-21T13:53:30;6.57;;;3.30;;
10341;SDS011;5216;54.602;18.356;2024-02-21T13:55:57;5.50;;;3.30;;
10341;SDS011;5216;54.602;18.356;2024-02-21T13:58:24;7.90;;;5.10;;
10341;SDS011;5216;54.602;18.356;2024-02-21T14:00:53;14.73;;;11.00;;
10341;SDS011;5216;54.602;18.356;2024-02-21T14:03:20;8.83;;;7.30;;
10341;SDS011;5216;54.602;18.356;2024-02-21T14:05:47;5.00;;;3.63;;
10341;SDS011;5216;54.602;18.356;2024-02-21T14:08:17;7.37;;;4.97;;
10341;SDS011;5216;54.602;18.356;2024-02-21T14:10:44;7.07;;;4.63;;
10341;SDS011;5216;54.602;18.356;2024-02-21T14:13:11;5.33;;;3.10;;
10341;SDS011;5216;54.602;18.356;2024-02-21T14:15:39;27.07;;;21.63;;
10341;SDS011;5216;54.602;18.356;2024-02-21T14:18:08;18.90;;;12.67;;
10341;SDS011;5216;54.602;18.356;2024-02-21T14:20:38;17.00;;;11.23;;
10341;SDS011;5216;54.602;18.356;2024-02-21T14:23:05;36.90;;;32.77;;
10341;SDS011;5216;54.602;18.356;2024-02-21T14:25:32;16.77;;;13.10;;
10341;SDS011;5216;54.602;18.356;2024-02-21T14:28:00;14.57;;;9.90;;
10341;SDS011;5216;54.602;18.356;2024-02-21T14:30:27;10.00;;;7.13;;
10341;SDS011;5216;54.602;18.356;2024-02-21T14:32:54;5.33;;;3.93;;
10341;SDS011;5216;54.602;18.356;2024-02-21T14:35:21;6.30;;;3.47;;
10341;SDS011;5216;54.602;18.356;2024-02-21T14:37:48;6.43;;;3.27;;
10341;SDS011;5216;54.602;18.356;2024-02-21T14:40:19;6.50;;;4.70;;
10341;SDS011;5216;54.602;18.356;2024-02-21T14:42:47;5.70;;;2.70;;
10341;SDS011;5216;54.602;18.356;2024-02-21T14:45:14;5.07;;;2.60;;
10341;SDS011;5216;54.602;18.356;2024-02-21T14:47:41;4.37;;;2.73;;
10341;SDS011;5216;54.602;18.356;2024-02-21T14:50:08;4.87;;;2.90;;